createdAt,value
2022-11-16T00:03:55.246Z,982.45
2022-11-16T00:09:38.432Z,982.49
2022-11-16T00:15:21.290Z,982.52
2022-11-16T00:21:05.982Z,982.71
2022-11-16T00:26:49.165Z,982.52
2022-11-16T00:32:31.918Z,982.57
2022-11-16T00:38:16.186Z,982.48
2022-11-16T00:43:58.926Z,982.57
2022-11-16T00:49:41.987Z,982.63
2022-11-16T00:55:25.047Z,982.75
2022-11-16T01:01:09.570Z,982.82
2022-11-16T01:06:52.847Z,982.69
2022-11-16T01:12:36.402Z,982.61
2022-11-16T01:18:19.176Z,982.7
2022-11-16T01:24:02.124Z,982.74
2022-11-16T01:29:45.013Z,982.76
2022-11-16T01:35:27.894Z,982.75
2022-11-16T01:41:13.508Z,982.83
2022-11-16T01:46:56.411Z,982.91
2022-11-16T01:52:41.271Z,982.87
2022-11-16T01:58:25.678Z,982.86
2022-11-16T02:04:10.668Z,982.84
2022-11-16T02:10:07.601Z,982.92
2022-11-16T02:15:56.079Z,982.91
2022-11-16T02:21:42.089Z,982.89
2022-11-16T02:27:39.036Z,982.97
2022-11-16T02:33:24.127Z,982.94
2022-11-16T02:39:09.742Z,982.97
2022-11-16T02:44:53.548Z,982.99
2022-11-16T02:50:38.607Z,983.04
2022-11-16T02:56:21.777Z,983.07
2022-11-16T03:02:10.004Z,983.14
2022-11-16T03:07:58.836Z,983.21
2022-11-16T03:13:44.166Z,983.38
2022-11-16T03:19:30.176Z,983.37
2022-11-16T03:25:14.586Z,983.34
2022-11-16T03:30:59.535Z,983.31
2022-11-16T03:36:43.964Z,983.27
2022-11-16T03:42:27.213Z,983.34
2022-11-16T03:48:10.819Z,983.32
2022-11-16T03:53:53.881Z,983.4
2022-11-16T03:59:37.063Z,983.43
2022-11-16T04:05:20.272Z,983.44
2022-11-16T04:11:04.076Z,983.49
2022-11-16T04:16:48.069Z,983.52
2022-11-16T04:22:32.865Z,983.32
2022-11-16T04:28:17.028Z,983.49
2022-11-16T04:33:59.788Z,983.49
2022-11-16T04:39:42.727Z,983.6
2022-11-16T04:45:26.504Z,983.55
2022-11-16T04:51:09.432Z,983.49
2022-11-16T04:56:52.457Z,983.44
2022-11-16T05:02:35.565Z,983.37
2022-11-16T05:08:18.591Z,983.33
2022-11-16T05:14:01.679Z,983.4
2022-11-16T05:19:45.082Z,983.33
2022-11-16T05:25:36.909Z,983.34
2022-11-16T05:31:20.221Z,983.33
2022-11-16T05:37:03.275Z,983.38
2022-11-16T05:42:46.156Z,983.35
2022-11-16T05:48:29.027Z,983.47
2022-11-16T05:54:12.480Z,983.53
2022-11-16T05:59:55.319Z,983.51
2022-11-16T06:05:41.692Z,983.58
2022-11-16T06:11:24.835Z,983.64
2022-11-16T06:17:12.330Z,983.65
2022-11-16T06:22:55.175Z,983.69
2022-11-16T06:28:38.463Z,983.71
2022-11-16T06:34:21.506Z,983.7
2022-11-16T06:40:05.555Z,983.76
2022-11-16T06:45:48.639Z,983.78
2022-11-16T06:51:32.639Z,983.78
2022-11-16T06:57:15.741Z,983.76
2022-11-16T07:02:58.740Z,983.73
2022-11-16T07:08:41.577Z,983.75
2022-11-16T07:14:24.321Z,983.78
2022-11-16T07:20:07.674Z,983.82
2022-11-16T07:25:50.344Z,983.69
2022-11-16T07:31:33.282Z,983.78
2022-11-16T07:37:15.892Z,983.81
2022-11-16T07:43:01.641Z,983.83
2022-11-16T07:48:44.689Z,983.82
2022-11-16T07:54:28.765Z,983.87
2022-11-16T08:00:12.613Z,983.93
2022-11-16T08:05:58.500Z,983.9
2022-11-16T08:11:41.596Z,983.93
2022-11-16T08:17:25.425Z,983.95
2022-11-16T08:23:08.505Z,983.9
2022-11-16T08:28:51.782Z,983.92
2022-11-16T08:34:34.823Z,983.88
2022-11-16T08:40:18.321Z,983.94
2022-11-16T08:46:02.053Z,983.93
2022-11-16T08:51:45.048Z,983.82
2022-11-16T08:57:28.001Z,983.8
2022-11-16T09:03:11.657Z,983.69
2022-11-16T09:08:54.618Z,983.7
2022-11-16T09:14:37.434Z,983.79
2022-11-16T09:20:20.516Z,983.83
2022-11-16T09:26:05.973Z,983.82
2022-11-16T09:31:49.011Z,983.8
2022-11-16T09:37:31.964Z,983.86
2022-11-16T09:43:20.233Z,983.75
2022-11-16T09:49:17.139Z,983.79
2022-11-16T09:55:03.044Z,983.9
2022-11-16T10:00:50.234Z,983.85
2022-11-16T10:06:38.899Z,983.76
2022-11-16T10:12:25.298Z,983.74
2022-11-16T10:18:15.945Z,983.68
2022-11-16T10:24:06.665Z,983.61
2022-11-16T10:29:57.538Z,983.63
2022-11-16T10:35:43.421Z,983.62
2022-11-16T10:41:29.793Z,983.68
2022-11-16T10:47:17.720Z,983.7
2022-11-16T10:53:01.062Z,983.73
2022-11-16T10:58:54.312Z,983.58
2022-11-16T11:04:37.177Z,983.43
2022-11-16T11:10:28.708Z,983.42
2022-11-16T11:16:19.712Z,983.39
2022-11-16T11:22:04.080Z,983.35
2022-11-16T11:27:47.104Z,983.32
2022-11-16T11:33:31.549Z,983.25
2022-11-16T11:39:29.736Z,983.17
2022-11-16T11:45:13.722Z,983.14
2022-11-16T11:51:01.597Z,983
2022-11-16T11:56:44.522Z,983.03
2022-11-16T12:02:35.738Z,983.01
2022-11-16T12:08:25.719Z,982.9
2022-11-16T12:14:14.502Z,982.84
2022-11-16T12:20:12.673Z,982.77
2022-11-16T12:26:00.336Z,982.62
2022-11-16T12:31:51.348Z,982.56
2022-11-16T12:37:38.296Z,982.51
2022-11-16T12:43:23.493Z,982.53
2022-11-16T12:49:19.032Z,982.57
2022-11-16T12:55:30.575Z,982.51
2022-11-16T13:01:17.863Z,982.48
2022-11-16T13:07:11.064Z,982.63
2022-11-16T13:13:30.059Z,982.5
2022-11-16T13:19:01.475Z,982.47
2022-11-16T13:24:52.580Z,982.33
2022-11-16T13:30:41.948Z,982.28
2022-11-16T13:36:36.429Z,982.25
2022-11-16T13:42:19.271Z,982.05
2022-11-16T13:48:03.925Z,982.06
2022-11-16T13:59:56.908Z,981.91
2022-11-16T14:05:43.897Z,981.7
2022-11-16T14:11:32.854Z,981.79
2022-11-16T14:17:20.707Z,981.88
2022-11-16T14:23:12.879Z,981.86
2022-11-16T14:29:03.743Z,981.81
2022-11-16T14:34:48.104Z,981.67
2022-11-16T14:40:33.163Z,981.63
2022-11-16T14:46:21.627Z,981.66
2022-11-16T14:52:05.662Z,981.5
2022-11-16T14:57:57.111Z,981.49
2022-11-16T15:03:41.925Z,981.3
2022-11-16T15:09:27.725Z,981.31
2022-11-16T15:15:14.340Z,981.25
2022-11-16T15:20:57.280Z,981.12
2022-11-16T15:26:40.548Z,980.94
2022-11-16T15:32:23.518Z,980.89
2022-11-16T15:38:12.617Z,980.8
2022-11-16T15:44:16.639Z,980.76
2022-11-16T15:49:57.754Z,980.79
2022-11-16T15:55:41.592Z,980.72
2022-11-16T16:01:25.442Z,980.57
2022-11-16T16:07:08.909Z,980.39
2022-11-16T16:12:52.254Z,980.22
2022-11-16T16:18:35.079Z,980.14
2022-11-16T16:24:28.925Z,980.05
2022-11-16T16:30:13.981Z,979.94
2022-11-16T16:35:57.007Z,979.88
2022-11-16T16:41:40.772Z,979.99
2022-11-16T16:47:23.664Z,979.95
2022-11-16T16:53:06.604Z,979.77
2022-11-16T16:58:49.793Z,979.86
2022-11-16T17:04:33.420Z,979.81
2022-11-16T17:10:16.528Z,979.69
2022-11-16T17:15:59.666Z,979.65
2022-11-16T17:21:42.760Z,979.5
2022-11-16T17:27:25.849Z,979.51
2022-11-16T17:33:08.848Z,979.48
2022-11-16T17:38:51.674Z,979.56
2022-11-16T17:44:34.379Z,979.46
2022-11-16T17:50:17.570Z,979.42
2022-11-16T17:56:00.441Z,979.53
2022-11-16T18:01:43.411Z,979.5
2022-11-16T18:07:26.793Z,979.42
2022-11-16T18:13:10.153Z,979.36
2022-11-16T18:18:57.142Z,979.36
2022-11-16T18:24:41.012Z,979.21
2022-11-16T18:30:24.592Z,979.08
2022-11-16T18:36:09.031Z,978.87
2022-11-16T18:41:55.850Z,978.79
2022-11-16T18:47:39.743Z,978.64
2022-11-16T18:53:22.676Z,978.5
2022-11-16T18:59:05.938Z,978.41
2022-11-16T19:04:49.110Z,978.29
2022-11-16T19:10:36.144Z,978.08
2022-11-16T19:16:19.054Z,977.92
2022-11-16T19:22:01.930Z,977.77
2022-11-16T19:27:44.973Z,977.62
2022-11-16T19:33:28.076Z,977.35
2022-11-16T19:39:11.189Z,977.28
2022-11-16T19:44:54.094Z,976.98
2022-11-16T19:50:37.096Z,976.78
2022-11-16T19:56:21.135Z,976.63
2022-11-16T20:02:06.558Z,976.51
2022-11-16T20:07:49.779Z,976.39
2022-11-16T20:13:33.157Z,976.06
2022-11-16T20:19:16.902Z,975.97
2022-11-16T20:24:59.808Z,975.68
2022-11-16T20:30:45.472Z,975.53
2022-11-16T20:36:29.161Z,975.2
2022-11-16T20:42:13.901Z,975.04
2022-11-16T20:47:59.919Z,974.84
2022-11-16T20:53:45.691Z,974.57
2022-11-16T20:59:31.285Z,974.33
2022-11-16T21:05:15.618Z,973.94
2022-11-16T21:10:59.620Z,973.84
2022-11-16T21:16:44.883Z,973.6
2022-11-16T21:22:34.214Z,973.27
2022-11-16T21:28:25.709Z,972.75
2022-11-16T21:34:10.263Z,972.73
2022-11-16T21:39:54.728Z,972.62
2022-11-16T21:45:38.993Z,972.64
2022-11-16T21:51:24.712Z,972.42
2022-11-16T21:57:11.067Z,972.57
2022-11-16T22:02:55.309Z,972.43
2022-11-16T22:08:38.994Z,972.19
2022-11-16T22:14:22.088Z,971.98
2022-11-16T22:20:07.136Z,971.78
2022-11-16T22:25:50.309Z,971.62
2022-11-16T22:31:33.962Z,971.58
2022-11-16T22:37:17.257Z,971.51
2022-11-16T22:43:00.910Z,971.42
2022-11-16T22:48:43.787Z,971.04
2022-11-16T22:54:29.712Z,971.01
2022-11-16T23:00:13.713Z,970.89
2022-11-16T23:05:56.607Z,970.96
2022-11-16T23:11:39.656Z,970.92
2022-11-16T23:17:22.759Z,970.83
2022-11-16T23:23:13.324Z,970.79
2022-11-16T23:28:57.521Z,970.75
2022-11-16T23:34:40.571Z,970.71
2022-11-16T23:40:24.691Z,970.66
2022-11-16T23:46:07.706Z,970.9
2022-11-16T23:51:50.667Z,970.6
2022-11-16T23:57:33.634Z,970.55
